Time,TemperatureF,DewpointF,PressureIn,WindDirection,WindDirectionDegrees,WindSpeedMPH,WindSpeedGustMPH,Humidity,HourlyPrecipIn,Conditions,Clouds,dailyrainin,SoftwareType,DateUTC
2013-01-31 00:01:00,23.7,22.0,30.21,NNE,15,4.0,4.0,92,0.00,,,0.00,weatherlink.com 1.10,2013-01-31 07:01:00,
2013-01-31 00:16:00,23.5,22.0,30.23,NNE,15,2.0,2.0,92,0.00,,,0.00,weatherlink.com 1.10,2013-01-31 07:16:00,
2013-01-31 00:31:00,23.5,22.0,30.23,NNE,15,3.0,3.0,92,0.00,,,0.00,weatherlink.com 1.10,2013-01-31 07:31:00,
2013-01-31 00:46:00,23.6,22.0,30.22,NNE,15,0.0,0.0,92,0.00,,,0.00,weatherlink.com 1.10,2013-01-31 07:46:00,
2013-01-31 01:02:00,23.6,22.0,30.21,NNE,15,0.0,0.0,92,0.00,,,0.00,weatherlink.com 1.10,2013-01-31 08:02:00,
2013-01-31 01:16:00,23.5,21.0,30.20,NNE,15,2.0,2.0,91,0.00,,,0.00,weatherlink.com 1.10,2013-01-31 08:16:00,
2013-01-31 01:32:00,23.1,21.0,30.21,NNE,15,2.0,2.0,91,0.00,,,0.00,weatherlink.com 1.10,2013-01-31 08:32:00,
2013-01-31 01:46:00,23.0,21.0,30.21,NNE,15,2.0,5.0,91,0.00,,,0.00,weatherlink.com 1.10,2013-01-31 08:46:00,
2013-01-31 02:01:00,22.3,20.0,30.22,NNE,15,4.0,7.0,91,0.00,,,0.00,weatherlink.com 1.10,2013-01-31 09:01:00,
2013-01-31 02:16:00,22.5,21.0,30.24,NNE,15,4.0,6.0,92,0.00,,,0.00,weatherlink.com 1.10,2013-01-31 09:16:00,
2013-01-31 02:31:00,22.4,21.0,30.24,NNE,15,4.0,6.0,92,0.00,,,0.00,weatherlink.com 1.10,2013-01-31 09:31:00,
2013-01-31 02:46:00,22.5,21.0,30.24,NNE,15,4.0,5.0,93,0.00,,,0.00,weatherlink.com 1.10,2013-01-31 09:46:00,
2013-01-31 03:02:00,22.5,21.0,30.23,NNE,15,3.0,5.0,92,0.00,,,0.00,weatherlink.com 1.10,2013-01-31 10:02:00,
2013-01-31 03:16:00,22.5,20.0,30.23,NNE,15,4.0,5.0,91,0.00,,,0.00,weatherlink.com 1.10,2013-01-31 10:16:00,
2013-01-31 03:31:00,22.5,20.0,30.24,NNE,15,2.0,4.0,90,0.00,,,0.00,weatherlink.com 1.10,2013-01-31 10:31:00,
2013-01-31 03:46:00,22.3,20.0,30.25,NNE,15,6.0,8.0,90,0.00,,,0.00,weatherlink.com 1.10,2013-01-31 10:46:00,
2013-01-31 04:02:00,22.1,19.0,30.26,NNE,15,8.0,13.0,89,0.00,,,0.00,weatherlink.com 1.10,2013-01-31 11:02:00,
2013-01-31 04:17:00,22.0,19.0,30.27,NNE,15,10.0,12.0,88,0.00,,,0.00,weatherlink.com 1.10,2013-01-31 11:17:00,
2013-01-31 04:32:00,21.9,19.0,30.28,NNE,17,8.0,9.0,88,0.00,,,0.00,weatherlink.com 1.10,2013-01-31 11:32:00,
2013-01-31 04:47:00,21.8,19.0,30.28,NNE,17,4.0,9.0,88,0.00,,,0.00,weatherlink.com 1.10,2013-01-31 11:47:00,
2013-01-31 05:17:00,20.8,18.0,30.30,NNE,17,6.0,7.0,89,0.00,,,0.00,weatherlink.com 1.10,2013-01-31 12:17:00,
2013-01-31 05:32:00,20.7,18.0,30.30,NNE,23,6.0,7.0,89,0.00,,,0.00,weatherlink.com 1.10,2013-01-31 12:32:00,
2013-01-31 05:47:00,20.4,18.0,30.30,NNE,23,0.0,5.0,90,0.00,,,0.00,weatherlink.com 1.10,2013-01-31 12:47:00,
2013-01-31 06:02:00,20.2,18.0,30.30,NNE,23,3.0,4.0,90,0.00,,,0.00,weatherlink.com 1.10,2013-01-31 13:02:00,
2013-01-31 06:17:00,18.6,16.0,30.30,NNE,23,4.0,8.0,89,0.00,,,0.00,weatherlink.com 1.10,2013-01-31 13:17:00,
2013-01-31 06:32:00,17.6,15.0,30.30,NNE,23,2.0,5.0,89,0.00,,,0.00,weatherlink.com 1.10,2013-01-31 13:32:00,
2013-01-31 06:47:00,17.3,15.0,30.30,NNE,23,4.0,5.0,90,0.00,,,0.00,weatherlink.com 1.10,2013-01-31 13:47:00,
2013-01-31 07:02:00,16.5,14.0,30.30,NNE,23,5.0,7.0,88,0.00,,,0.00,weatherlink.com 1.10,2013-01-31 14:02:00,
2013-01-31 07:17:00,15.9,13.0,30.31,NNE,23,5.0,8.0,89,0.00,,,0.00,weatherlink.com 1.10,2013-01-31 14:17:00,
2013-01-31 07:32:00,14.8,12.0,30.31,NNE,23,6.0,8.0,88,0.00,,,0.00,weatherlink.com 1.10,2013-01-31 14:32:00,
2013-01-31 07:47:00,14.0,11.0,30.31,NNE,23,4.0,8.0,88,0.00,,,0.00,weatherlink.com 1.10,2013-01-31 14:47:00,
2013-01-31 08:02:00,13.5,11.0,30.32,NNE,23,2.0,4.0,88,0.00,,,0.00,weatherlink.com 1.10,2013-01-31 15:02:00,
2013-01-31 08:17:00,13.6,11.0,30.34,NNE,23,2.0,3.0,89,0.00,,,0.00,weatherlink.com 1.10,2013-01-31 15:17:00,
2013-01-31 08:32:00,13.5,11.0,30.34,NNE,23,1.0,4.0,88,0.00,,,0.00,weatherlink.com 1.10,2013-01-31 15:32:00,
2013-01-31 08:47:00,13.2,10.0,30.34,NNE,23,2.0,3.0,87,0.00,,,0.00,weatherlink.com 1.10,2013-01-31 15:47:00,
2013-01-31 09:02:00,14.2,12.0,30.35,NNE,23,2.0,5.0,89,0.00,,,0.00,weatherlink.com 1.10,2013-01-31 16:02:00,
2013-01-31 09:17:00,15.1,13.0,30.35,NNE,23,0.0,4.0,89,0.00,,,0.00,weatherlink.com 1.10,2013-01-31 16:17:00,
2013-01-31 09:32:00,16.1,14.0,30.36,NNE,23,0.0,0.0,89,0.00,,,0.00,weatherlink.com 1.10,2013-01-31 16:32:00,
2013-01-31 09:47:00,17.0,14.0,30.36,NNE,23,0.0,2.0,87,0.00,,,0.00,weatherlink.com 1.10,2013-01-31 16:47:00,
2013-01-31 10:02:00,18.1,15.0,30.36,NNE,23,1.0,4.0,86,0.00,,,0.00,weatherlink.com 1.10,2013-01-31 17:02:00,
2013-01-31 10:17:00,20.2,16.0,30.36,NNE,23,0.0,2.0,82,0.00,,,0.00,weatherlink.com 1.10,2013-01-31 17:17:00,
2013-01-31 10:33:00,21.9,17.0,30.36,NNE,23,0.0,3.0,80,0.00,,,0.00,weatherlink.com 1.10,2013-01-31 17:33:00,
2013-01-31 10:48:00,22.7,17.0,30.36,NNE,23,0.0,3.0,80,0.01,,,0.01,weatherlink.com 1.10,2013-01-31 17:48:00,
2013-01-31 11:03:00,24.6,19.0,30.36,NNE,23,0.0,2.0,78,0.01,,,0.01,weatherlink.com 1.10,2013-01-31 18:03:00,
2013-01-31 11:18:00,24.2,18.0,30.35,NNE,23,3.0,4.0,78,0.01,,,0.01,weatherlink.com 1.10,2013-01-31 18:18:00,
2013-01-31 11:33:00,24.8,20.0,30.35,NNE,23,0.0,2.0,81,0.01,,,0.01,weatherlink.com 1.10,2013-01-31 18:33:00,
2013-01-31 11:48:00,26.3,20.0,30.34,NNE,23,4.0,5.0,78,0.00,,,0.01,weatherlink.com 1.10,2013-01-31 18:48:00,
2013-01-31 12:03:00,27.8,21.0,30.34,NNE,23,1.0,4.0,74,0.00,,,0.01,weatherlink.com 1.10,2013-01-31 19:03:00,
2013-01-31 12:18:00,29.0,21.0,30.33,NNE,23,3.0,5.0,73,0.00,,,0.01,weatherlink.com 1.10,2013-01-31 19:18:00,
2013-01-31 12:33:00,27.8,21.0,30.32,NNE,23,2.0,5.0,75,0.00,,,0.01,weatherlink.com 1.10,2013-01-31 19:33:00,
2013-01-31 12:48:00,28.3,21.0,30.31,NNE,23,3.0,5.0,75,0.00,,,0.01,weatherlink.com 1.10,2013-01-31 19:48:00,
2013-01-31 13:03:00,28.3,21.0,30.30,NNE,23,4.0,5.0,74,0.01,,,0.02,weatherlink.com 1.10,2013-01-31 20:03:00,
2013-01-31 13:18:00,28.7,22.0,30.30,NNE,23,3.0,4.0,75,0.01,,,0.02,weatherlink.com 1.10,2013-01-31 20:18:00,
2013-01-31 13:33:00,28.7,22.0,30.29,NNE,23,6.0,6.0,75,0.01,,,0.02,weatherlink.com 1.10,2013-01-31 20:33:00,
2013-01-31 13:48:00,29.1,21.0,30.28,NNE,23,5.0,7.0,73,0.01,,,0.02,weatherlink.com 1.10,2013-01-31 20:48:00,
2013-01-31 14:03:00,29.0,21.0,30.27,NNE,23,5.0,5.0,73,0.00,,,0.02,weatherlink.com 1.10,2013-01-31 21:03:00,
2013-01-31 14:18:00,28.9,22.0,30.27,NNE,23,6.0,7.0,74,0.00,,,0.02,weatherlink.com 1.10,2013-01-31 21:18:00,
2013-01-31 14:33:00,28.5,22.0,30.28,NNE,23,6.0,9.0,75,0.00,,,0.02,weatherlink.com 1.10,2013-01-31 21:33:00,
2013-01-31 14:48:00,28.5,22.0,30.28,NE,34,4.0,10.0,77,0.00,,,0.02,weatherlink.com 1.10,2013-01-31 21:48:00,
2013-01-31 15:03:00,28.9,23.0,30.27,NE,51,6.0,11.0,78,0.00,,,0.02,weatherlink.com 1.10,2013-01-31 22:03:00,
2013-01-31 15:18:00,29.3,23.0,30.27,ENE,71,5.0,11.0,76,0.00,,,0.02,weatherlink.com 1.10,2013-01-31 22:18:00,
2013-01-31 15:33:00,28.5,22.0,30.27,ENE,74,4.0,11.0,77,0.00,,,0.02,weatherlink.com 1.10,2013-01-31 22:33:00,
2013-01-31 15:48:00,27.3,21.0,30.27,NE,40,7.0,10.0,78,0.00,,,0.02,weatherlink.com 1.10,2013-01-31 22:48:00,
2013-01-31 16:03:00,27.1,21.0,30.26,NE,40,7.0,10.0,79,0.00,,,0.02,weatherlink.com 1.10,2013-01-31 23:03:00,
2013-01-31 16:18:00,26.9,22.0,30.26,NE,40,6.0,10.0,80,0.00,,,0.02,weatherlink.com 1.10,2013-01-31 23:18:00,
2013-01-31 16:33:00,26.9,22.0,30.26,NE,40,6.0,10.0,80,0.00,,,0.02,weatherlink.com 1.10,2013-01-31 23:33:00,
2013-01-31 16:48:00,25.7,21.0,30.26,NE,40,6.0,8.0,82,0.00,,,0.02,weatherlink.com 1.10,2013-01-31 23:48:00,
2013-01-31 17:03:00,24.6,20.0,30.25,NE,40,4.0,7.0,83,0.00,,,0.02,weatherlink.com 1.10,2013-02-01 00:03:00,
2013-01-31 17:18:00,24.0,20.0,30.25,NE,40,4.0,7.0,85,0.00,,,0.02,weatherlink.com 1.10,2013-02-01 00:18:00,
2013-01-31 17:33:00,23.4,20.0,30.25,NE,40,7.0,10.0,85,0.00,,,0.02,weatherlink.com 1.10,2013-02-01 00:33:00,
2013-01-31 17:48:00,22.6,19.0,30.25,NE,40,8.0,9.0,86,0.00,,,0.02,weatherlink.com 1.10,2013-02-01 00:48:00,
2013-01-31 18:03:00,22.1,19.0,30.25,NE,40,7.0,9.0,86,0.00,,,0.02,weatherlink.com 1.10,2013-02-01 01:03:00,
2013-01-31 18:18:00,21.1,18.0,30.25,NE,40,9.0,10.0,86,0.00,,,0.02,weatherlink.com 1.10,2013-02-01 01:18:00,
2013-01-31 18:33:00,19.3,16.0,30.25,NE,40,3.0,10.0,87,0.00,,,0.02,weatherlink.com 1.10,2013-02-01 01:33:00,
2013-01-31 18:48:00,19.8,17.0,30.25,NE,40,8.0,9.0,89,0.00,,,0.02,weatherlink.com 1.10,2013-02-01 01:48:00,
2013-01-31 19:03:00,20.1,17.0,30.25,NE,40,5.0,9.0,89,0.00,,,0.02,weatherlink.com 1.10,2013-02-01 02:03:00,
2013-01-31 19:18:00,20.0,17.0,30.25,NE,40,7.0,9.0,89,0.00,,,0.02,weatherlink.com 1.10,2013-02-01 02:18:00,
2013-01-31 19:34:00,20.0,17.0,30.25,NE,40,5.0,10.0,89,0.00,,,0.02,weatherlink.com 1.10,2013-02-01 02:34:00,
2013-01-31 19:48:00,20.1,17.0,30.25,NE,40,5.0,8.0,89,0.00,,,0.02,weatherlink.com 1.10,2013-02-01 02:48:00,
2013-01-31 20:03:00,19.8,17.0,30.25,NE,40,5.0,8.0,89,0.00,,,0.02,weatherlink.com 1.10,2013-02-01 03:03:00,
2013-01-31 20:18:00,20.1,17.0,30.25,NE,40,9.0,9.0,89,0.00,,,0.02,weatherlink.com 1.10,2013-02-01 03:18:00,
2013-01-31 20:33:00,19.9,17.0,30.25,NE,40,7.0,8.0,87,0.00,,,0.02,weatherlink.com 1.10,2013-02-01 03:33:00,
2013-01-31 20:48:00,19.5,17.0,30.26,NE,40,6.0,8.0,89,0.00,,,0.02,weatherlink.com 1.10,2013-02-01 03:48:00,
2013-01-31 21:04:00,20.0,17.0,30.26,NE,40,4.0,8.0,89,0.00,,,0.02,weatherlink.com 1.10,2013-02-01 04:04:00,
2013-01-31 21:18:00,19.7,17.0,30.26,NE,40,3.0,6.0,87,0.00,,,0.02,weatherlink.com 1.10,2013-02-01 04:18:00,
2013-01-31 21:34:00,17.6,15.0,30.25,NE,40,5.0,8.0,88,0.00,,,0.02,weatherlink.com 1.10,2013-02-01 04:34:00,
2013-01-31 21:48:00,16.6,14.0,30.25,NE,40,5.0,5.0,89,0.00,,,0.02,weatherlink.com 1.10,2013-02-01 04:48:00,
2013-01-31 22:03:00,15.9,13.0,30.25,NE,40,1.0,6.0,89,0.00,,,0.02,weatherlink.com 1.10,2013-02-01 05:03:00,
2013-01-31 22:18:00,15.8,13.0,30.25,NE,40,0.0,5.0,90,0.00,,,0.02,weatherlink.com 1.10,2013-02-01 05:18:00,
2013-01-31 22:33:00,16.4,14.0,30.25,NE,40,2.0,4.0,91,0.00,,,0.02,weatherlink.com 1.10,2013-02-01 05:33:00,
2013-01-31 22:49:00,17.1,15.0,30.25,NE,40,2.0,4.0,91,0.00,,,0.02,weatherlink.com 1.10,2013-02-01 05:49:00,
2013-01-31 23:03:00,17.3,15.0,30.25,NE,40,0.0,0.0,90,0.00,,,0.02,weatherlink.com 1.10,2013-02-01 06:03:00,
2013-01-31 23:18:00,17.6,15.0,30.24,NE,40,2.0,6.0,90,0.00,,,0.02,weatherlink.com 1.10,2013-02-01 06:18:00,
2013-01-31 23:33:00,17.9,16.0,30.25,NE,40,0.0,2.0,90,0.00,,,0.02,weatherlink.com 1.10,2013-02-01 06:33:00,
2013-01-31 23:49:00,17.5,15.0,30.24,NE,40,2.0,7.0,90,0.00,,,0.02,weatherlink.com 1.10,2013-02-01 06:49:00,